Time;durP1;ratioP1;P1;durP2;ratioP2;P2;SDS_P1;SDS_P2;PMS_P1;PMS_P2;Temp;Humidity;BMP_temperature;BMP_pressure;BME280_temperature;BME280_humidity;BME280_pressure;Samples;Min_cycle;Max_cycle;Signal;HPM_P1;HPM_P2
2021/12/25 00:01:20;;;;;;;3.87;1.50;;;;;;;;;;4205049;28;22307;-73
2021/12/25 00:03:51;;;;;;;3.13;1.60;;;;;;;;;;4200899;28;21857;-73
2021/12/25 00:06:18;;;;;;;4.57;1.50;;;;;;;;;;4206663;28;25388;-73
2021/12/25 00:08:44;;;;;;;4.23;1.70;;;;;;;;;;4192774;28;21612;-73
2021/12/25 00:11:11;;;;;;;5.20;1.87;;;;;;;;;;4200836;28;21779;-73
2021/12/25 00:13:39;;;;;;;3.87;1.40;;;;;;;;;;4187747;28;20233;-73
2021/12/25 00:16:07;;;;;;;3.87;1.53;;;;;;;;;;4197827;28;20235;-75
2021/12/25 00:18:38;;;;;;;2.33;1.50;;;;;;;;;;4203209;28;20237;-74
2021/12/25 00:21:05;;;;;;;2.40;1.53;;;;;;;;;;4201815;28;20253;-73
2021/12/25 00:23:32;;;;;;;7.23;1.80;;;;;;;;;;4199693;28;20238;-75
2021/12/25 00:26:04;;;;;;;5.07;1.90;;;;;;;;;;4196760;28;20650;-75
2021/12/25 00:31:09;;;;;;;5.57;2.20;;;;;;;;;;4206487;28;22065;-72
2021/12/25 00:36:07;;;;;;;8.47;2.10;;;;;;;;;;4207277;28;20254;-75
2021/12/25 00:38:36;;;;;;;4.40;2.30;;;;;;;;;;4209256;28;20295;-73
2021/12/25 00:41:10;;;;;;;7.20;1.83;;;;;;;;;;4200048;28;21828;-74
2021/12/25 00:43:36;;;;;;;6.27;2.10;;;;;;;;;;4199640;28;20227;-73
2021/12/25 00:46:03;;;;;;;5.27;2.13;;;;;;;;;;4195163;28;20233;-73
2021/12/25 00:48:29;;;;;;;5.53;1.87;;;;;;;;;;4203090;28;20311;-74
2021/12/25 00:50:55;;;;;;;4.77;1.77;;;;;;;;;;4198630;28;20233;-73
2021/12/25 00:53:22;;;;;;;5.17;2.00;;;;;;;;;;4194874;28;20233;-74
2021/12/25 00:55:48;;;;;;;6.17;2.10;;;;;;;;;;4189840;28;20893;-73
2021/12/25 00:58:15;;;;;;;7.13;2.10;;;;;;;;;;4187146;28;20257;-75
2021/12/25 01:00:42;;;;;;;4.27;1.93;;;;;;;;;;4189960;28;20700;-76
2021/12/25 01:03:09;;;;;;;6.33;1.87;;;;;;;;;;4181550;28;20555;-73
2021/12/25 01:05:36;;;;;;;5.20;1.90;;;;;;;;;;4188682;28;20402;-77
2021/12/25 01:08:03;;;;;;;8.47;1.93;;;;;;;;;;4186744;28;20300;-73
2021/12/25 01:10:29;;;;;;;5.03;1.23;;;;;;;;;;4188177;28;20685;-73
2021/12/25 01:15:55;;;;;;;4.67;1.93;;;;;;;;;;4187730;28;20250;-72
2021/12/25 01:23:57;;;;;;;5.27;1.40;;;;;;;;;;4190453;28;21072;-74
2021/12/25 01:29:27;;;;;;;3.60;1.40;;;;;;;;;;4190684;28;23159;-71
2021/12/25 01:50:10;;;;;;;4.80;1.00;;;;;;;;;;4187797;28;20263;-73
2021/12/25 01:52:37;;;;;;;8.17;1.40;;;;;;;;;;4188479;28;20665;-73
2021/12/25 01:55:08;;;;;;;7.10;1.33;;;;;;;;;;4182899;28;20250;-74
2021/12/25 01:57:35;;;;;;;4.07;1.20;;;;;;;;;;4189834;28;21403;-73
2021/12/25 02:00:03;;;;;;;5.10;1.50;;;;;;;;;;4186690;28;20350;-72
2021/12/25 02:02:30;;;;;;;4.33;1.20;;;;;;;;;;4186210;28;20335;-73
2021/12/25 02:04:57;;;;;;;3.10;1.00;;;;;;;;;;4187403;28;20729;-73
2021/12/25 02:07:23;;;;;;;5.23;1.17;;;;;;;;;;4190423;28;20840;-74
2021/12/25 02:09:49;;;;;;;2.03;1.10;;;;;;;;;;4185106;28;25527;-72
2021/12/25 02:12:16;;;;;;;5.90;1.43;;;;;;;;;;4186784;28;23753;-74
2021/12/25 02:14:45;;;;;;;3.40;1.10;;;;;;;;;;4185691;28;20225;-72
2021/12/25 02:18:05;;;;;;;6.00;1.20;;;;;;;;;;4186056;28;20233;-76
2021/12/25 02:20:25;;;;;;;7.10;1.27;;;;;;;;;;4187104;28;20319;-74
2021/12/25 02:22:55;;;;;;;8.63;1.67;;;;;;;;;;4192131;28;20281;-71
2021/12/25 02:25:22;;;;;;;4.60;1.93;;;;;;;;;;4187172;28;20245;-73
2021/12/25 02:27:48;;;;;;;5.13;1.40;;;;;;;;;;4186612;28;20281;-71
2021/12/25 02:30:14;;;;;;;3.57;1.20;;;;;;;;;;4173924;28;20235;-72
2021/12/25 02:32:44;;;;;;;3.33;1.50;;;;;;;;;;4191037;28;21867;-76
2021/12/25 02:35:11;;;;;;;5.73;1.13;;;;;;;;;;4187355;28;20249;-73
2021/12/25 02:37:40;;;;;;;3.77;1.03;;;;;;;;;;4187425;28;22693;-75
2021/12/25 02:40:09;;;;;;;3.43;1.10;;;;;;;;;;4186484;28;20386;-74
2021/12/25 02:42:35;;;;;;;4.90;1.30;;;;;;;;;;4187533;28;21748;-75
2021/12/25 02:45:03;;;;;;;4.90;0.90;;;;;;;;;;4170761;28;20241;-76
2021/12/25 02:47:30;;;;;;;5.50;1.50;;;;;;;;;;4191398;28;20237;-76
2021/12/25 02:49:57;;;;;;;5.37;1.37;;;;;;;;;;4180206;28;20234;-73
2021/12/25 02:52:23;;;;;;;3.00;1.30;;;;;;;;;;4195163;28;21431;-77
2021/12/25 02:54:50;;;;;;;3.80;1.33;;;;;;;;;;4197924;28;20791;-73
2021/12/25 02:57:16;;;;;;;4.07;1.07;;;;;;;;;;4200844;28;24731;-73
2021/12/25 02:59:43;;;;;;;3.23;1.00;;;;;;;;;;4195771;28;20303;-73
2021/12/25 03:02:13;;;;;;;4.87;1.30;;;;;;;;;;4197345;28;20241;-74
2021/12/25 03:04:41;;;;;;;4.30;1.10;;;;;;;;;;4191266;28;22993;-72
2021/12/25 03:07:08;;;;;;;4.03;1.50;;;;;;;;;;4195629;28;20231;-72
2021/12/25 03:09:35;;;;;;;12.43;1.50;;;;;;;;;;4211927;28;20441;-73
2021/12/25 03:12:04;;;;;;;5.43;1.20;;;;;;;;;;4190368;28;21742;-73
2021/12/25 03:15:01;;;;;;;3.17;1.60;;;;;;;;;;4192355;28;20279;-73
2021/12/25 03:17:26;;;;;;;11.00;1.57;;;;;;;;;;4199235;28;20240;-74
2021/12/25 03:19:55;;;;;;;5.43;1.50;;;;;;;;;;4200540;28;20534;-72
2021/12/25 03:22:21;;;;;;;6.77;2.03;;;;;;;;;;4196416;28;20229;-74
2021/12/25 03:24:48;;;;;;;3.93;1.27;;;;;;;;;;4186943;28;21734;-73
2021/12/25 03:27:15;;;;;;;6.97;1.43;;;;;;;;;;4199874;28;25682;-74
2021/12/25 03:29:42;;;;;;;5.80;1.33;;;;;;;;;;4181715;28;20421;-75
2021/12/25 03:32:10;;;;;;;11.17;1.60;;;;;;;;;;4201852;28;25386;-72
2021/12/25 03:34:37;;;;;;;6.30;1.80;;;;;;;;;;4214468;28;21242;-74
2021/12/25 03:37:04;;;;;;;6.20;1.70;;;;;;;;;;4195808;28;20310;-73
2021/12/25 03:39:30;;;;;;;4.97;2.13;;;;;;;;;;4197798;28;20244;-72
2021/12/25 03:41:58;;;;;;;15.77;3.60;;;;;;;;;;4193406;28;23654;-74
2021/12/25 03:44:25;;;;;;;11.27;2.87;;;;;;;;;;4198325;28;20236;-74
2021/12/25 03:46:53;;;;;;;11.37;2.80;;;;;;;;;;4195557;28;21657;-73
2021/12/25 03:53:07;;;;;;;5.60;1.70;;;;;;;;;;4182576;28;20249;-73
2021/12/25 03:57:57;;;;;;;7.93;1.90;;;;;;;;;;4205068;28;20237;-73
2021/12/25 04:00:29;;;;;;;5.70;1.70;;;;;;;;;;4202623;28;20368;-73
2021/12/25 04:03:01;;;;;;;6.80;1.83;;;;;;;;;;4199270;28;20729;-75
2021/12/25 04:05:31;;;;;;;6.63;1.80;;;;;;;;;;4201428;28;20493;-74
2021/12/25 04:08:06;;;;;;;5.97;1.50;;;;;;;;;;4197288;28;22280;-74
2021/12/25 04:10:36;;;;;;;5.30;1.63;;;;;;;;;;4202059;28;20232;-72
2021/12/25 04:13:04;;;;;;;4.37;1.60;;;;;;;;;;4197637;28;21716;-74
2021/12/25 04:15:31;;;;;;;4.43;1.57;;;;;;;;;;4200423;28;20611;-73
2021/12/25 04:17:57;;;;;;;7.73;1.53;;;;;;;;;;4197693;28;20345;-72
2021/12/25 04:20:23;;;;;;;5.40;1.60;;;;;;;;;;4197571;28;21291;-73
2021/12/25 04:22:58;;;;;;;5.90;1.30;;;;;;;;;;4198519;28;25982;-74
2021/12/25 04:25:28;;;;;;;4.20;1.17;;;;;;;;;;4213851;28;20240;-74
2021/12/25 04:27:59;;;;;;;5.37;1.33;;;;;;;;;;4200453;28;23097;-72
2021/12/25 04:30:36;;;;;;;8.73;1.80;;;;;;;;;;4191562;28;20520;-74
2021/12/25 05:03:40;;;;;;;10.00;3.17;;;;;;;;;;4196808;28;22542;-72
2021/12/25 05:06:07;;;;;;;7.53;3.17;;;;;;;;;;4201751;28;20234;-74
2021/12/25 05:08:33;;;;;;;10.87;3.60;;;;;;;;;;4195983;28;20879;-73
2021/12/25 05:11:00;;;;;;;10.10;4.07;;;;;;;;;;4192219;28;21928;-72
2021/12/25 05:13:26;;;;;;;8.03;3.57;;;;;;;;;;4192497;28;20539;-73
2021/12/25 05:15:53;;;;;;;8.97;3.83;;;;;;;;;;4191972;28;20221;-71
2021/12/25 05:18:19;;;;;;;12.10;4.20;;;;;;;;;;4198465;28;20300;-74
2021/12/25 05:20:46;;;;;;;13.57;4.93;;;;;;;;;;4198549;28;20251;-72
2021/12/25 05:23:12;;;;;;;28.30;6.57;;;;;;;;;;4196589;28;20280;-74
2021/12/25 05:25:40;;;;;;;17.97;5.93;;;;;;;;;;4192662;28;23295;-73
2021/12/25 05:28:07;;;;;;;14.33;4.97;;;;;;;;;;4189942;28;20244;-71
2021/12/25 05:30:34;;;;;;;11.70;4.57;;;;;;;;;;4196113;28;20230;-74
2021/12/25 05:33:00;;;;;;;7.93;3.03;;;;;;;;;;4200290;28;20244;-72
2021/12/25 05:35:27;;;;;;;16.33;4.03;;;;;;;;;;4196015;28;20232;-72
2021/12/25 05:37:58;;;;;;;12.20;3.93;;;;;;;;;;4192540;28;20314;-73
2021/12/25 05:40:24;;;;;;;9.63;3.70;;;;;;;;;;4202218;28;20244;-72
2021/12/25 05:42:51;;;;;;;10.27;3.70;;;;;;;;;;4195851;28;20233;-73
2021/12/25 05:45:17;;;;;;;10.17;3.77;;;;;;;;;;4204407;28;22485;-73
2021/12/25 05:47:44;;;;;;;9.07;3.00;;;;;;;;;;4204003;28;20229;-72
2021/12/25 05:50:10;;;;;;;8.97;2.50;;;;;;;;;;4202146;28;20407;-72
2021/12/25 05:52:37;;;;;;;11.63;3.10;;;;;;;;;;4218982;28;20236;-73
2021/12/25 05:55:03;;;;;;;7.07;2.63;;;;;;;;;;4196250;28;20237;-72
2021/12/25 05:57:30;;;;;;;11.97;2.77;;;;;;;;;;4192054;28;23657;-73
2021/12/25 05:59:56;;;;;;;7.27;2.60;;;;;;;;;;4201340;28;20294;-72
2021/12/25 06:02:22;;;;;;;13.07;3.00;;;;;;;;;;4197271;28;20317;-72
2021/12/25 06:04:49;;;;;;;6.93;2.50;;;;;;;;;;4208371;28;20233;-74
2021/12/25 06:07:15;;;;;;;6.43;2.30;;;;;;;;;;4214630;28;20343;-72
2021/12/25 06:09:41;;;;;;;9.47;3.00;;;;;;;;;;4197351;28;20221;-73
2021/12/25 06:12:11;;;;;;;10.43;2.70;;;;;;;;;;4196755;28;20308;-73
2021/12/25 06:14:37;;;;;;;9.10;2.50;;;;;;;;;;4199139;28;21244;-73
2021/12/25 06:17:04;;;;;;;8.97;2.53;;;;;;;;;;4212070;28;20241;-72
2021/12/25 06:19:30;;;;;;;8.47;2.43;;;;;;;;;;4212020;28;20266;-74
2021/12/25 06:21:57;;;;;;;7.10;2.10;;;;;;;;;;4207406;28;20244;-73
2021/12/25 06:24:25;;;;;;;9.37;3.07;;;;;;;;;;4208600;28;20250;-72
2021/12/25 06:26:52;;;;;;;12.73;2.53;;;;;;;;;;4211231;28;20610;-73
2021/12/25 06:29:19;;;;;;;8.67;2.77;;;;;;;;;;4210554;28;21249;-72
2021/12/25 06:31:47;;;;;;;10.77;2.80;;;;;;;;;;4204564;28;20300;-72
2021/12/25 06:34:13;;;;;;;14.13;2.80;;;;;;;;;;4209554;28;23473;-72
2021/12/25 06:36:40;;;;;;;13.73;2.97;;;;;;;;;;4202303;28;20233;-72
2021/12/25 06:39:11;;;;;;;7.73;2.47;;;;;;;;;;4215144;28;20398;-72
2021/12/25 06:41:38;;;;;;;6.83;2.80;;;;;;;;;;4201251;28;20319;-75
2021/12/25 06:44:04;;;;;;;12.50;2.87;;;;;;;;;;4205405;28;20234;-71
2021/12/25 06:46:31;;;;;;;7.87;2.47;;;;;;;;;;4223851;28;20229;-73
2021/12/25 06:48:58;;;;;;;11.07;3.00;;;;;;;;;;4212776;28;20238;-72
2021/12/25 06:51:25;;;;;;;15.67;3.57;;;;;;;;;;4229776;28;23536;-73
2021/12/25 06:53:51;;;;;;;13.27;2.90;;;;;;;;;;4202833;28;21733;-74
2021/12/25 06:56:18;;;;;;;6.83;2.57;;;;;;;;;;4205565;28;20234;-71
2021/12/25 06:58:44;;;;;;;11.07;2.93;;;;;;;;;;4207028;28;20232;-72
2021/12/25 07:01:10;;;;;;;11.83;2.77;;;;;;;;;;4214283;28;20327;-71
2021/12/25 07:03:37;;;;;;;7.83;2.50;;;;;;;;;;4202376;28;20287;-71
2021/12/25 07:06:04;;;;;;;11.23;2.37;;;;;;;;;;4200968;28;21577;-72
2021/12/25 07:08:30;;;;;;;6.00;2.47;;;;;;;;;;4223452;28;20332;-74
2021/12/25 07:10:57;;;;;;;6.57;2.33;;;;;;;;;;4208157;28;25538;-75
2021/12/25 07:13:23;;;;;;;8.23;2.70;;;;;;;;;;4209161;28;21175;-71
2021/12/25 07:15:50;;;;;;;13.30;3.20;;;;;;;;;;4203528;28;20234;-73
2021/12/25 07:18:16;;;;;;;10.63;3.07;;;;;;;;;;4195939;28;21279;-72
2021/12/25 07:20:45;;;;;;;9.33;3.03;;;;;;;;;;4200594;28;20248;-73
2021/12/25 07:23:11;;;;;;;7.43;3.10;;;;;;;;;;4219380;28;20241;-75
2021/12/25 07:25:38;;;;;;;8.03;2.90;;;;;;;;;;4202434;28;20263;-72
2021/12/25 07:28:04;;;;;;;10.10;3.60;;;;;;;;;;4205164;28;20228;-73
2021/12/25 07:30:32;;;;;;;18.20;4.70;;;;;;;;;;4200798;28;20238;-75
2021/12/25 07:32:58;;;;;;;13.37;4.67;;;;;;;;;;4200284;28;20232;-76
2021/12/25 07:35:26;;;;;;;19.77;5.67;;;;;;;;;;4199043;28;21661;-79
2021/12/25 07:37:52;;;;;;;23.87;5.80;;;;;;;;;;4198675;28;20233;-74
2021/12/25 07:40:19;;;;;;;16.20;5.47;;;;;;;;;;4205004;28;20245;-74
2021/12/25 07:42:45;;;;;;;15.97;5.20;;;;;;;;;;4194006;28;24098;-73
2021/12/25 07:45:12;;;;;;;16.80;5.63;;;;;;;;;;4187911;28;22825;-72
2021/12/25 07:47:45;;;;;;;16.13;4.73;;;;;;;;;;4193552;28;20308;-71
2021/12/25 07:50:13;;;;;;;15.33;5.37;;;;;;;;;;4190913;28;20323;-73
2021/12/25 07:52:40;;;;;;;14.57;4.53;;;;;;;;;;4203060;28;20435;-74
2021/12/25 07:55:07;;;;;;;23.20;5.37;;;;;;;;;;4189234;28;21914;-73
2021/12/25 07:57:34;;;;;;;18.53;5.90;;;;;;;;;;4185893;28;20283;-73
2021/12/25 08:00:00;;;;;;;19.43;6.27;;;;;;;;;;4196506;28;20232;-72
2021/12/25 08:02:26;;;;;;;21.70;5.63;;;;;;;;;;4197784;28;20242;-72
2021/12/25 08:04:53;;;;;;;14.83;5.07;;;;;;;;;;4205655;28;20294;-73
2021/12/25 08:07:19;;;;;;;14.20;5.30;;;;;;;;;;4199941;28;20249;-73
2021/12/25 08:09:46;;;;;;;14.10;5.57;;;;;;;;;;4198799;28;20225;-72
2021/12/25 08:12:12;;;;;;;19.30;6.13;;;;;;;;;;4217740;28;20351;-74
2021/12/25 08:14:39;;;;;;;15.83;6.13;;;;;;;;;;4210014;28;20233;-72
2021/12/25 08:17:07;;;;;;;26.50;6.90;;;;;;;;;;4201505;28;20243;-71
2021/12/25 08:19:33;;;;;;;24.10;6.60;;;;;;;;;;4198556;28;20242;-70
2021/12/25 08:22:00;;;;;;;22.70;6.30;;;;;;;;;;4197630;28;20289;-76
2021/12/25 08:24:26;;;;;;;22.50;6.50;;;;;;;;;;4196920;28;20248;-70
2021/12/25 08:26:53;;;;;;;20.40;6.73;;;;;;;;;;4192370;28;20244;-71
2021/12/25 08:29:19;;;;;;;25.10;7.97;;;;;;;;;;4204157;28;20235;-72
2021/12/25 08:31:45;;;;;;;25.83;7.43;;;;;;;;;;4194595;28;21372;-69
2021/12/25 08:34:12;;;;;;;24.87;6.33;;;;;;;;;;4219895;28;20229;-69
2021/12/25 08:36:40;;;;;;;25.13;6.70;;;;;;;;;;4196894;28;21660;-70
2021/12/25 08:39:07;;;;;;;17.17;6.73;;;;;;;;;;4200461;28;20596;-70
2021/12/25 08:41:34;;;;;;;23.17;7.37;;;;;;;;;;4240857;28;20245;-70
2021/12/25 08:44:08;;;;;;;19.97;6.83;;;;;;;;;;4198190;28;20291;-71
2021/12/25 08:46:54;;;;;;;20.97;7.77;;;;;;;;;;4198472;28;20232;-73
2021/12/25 08:49:24;;;;;;;25.83;6.97;;;;;;;;;;4205238;28;20232;-70
2021/12/25 08:51:52;;;;;;;23.57;7.47;;;;;;;;;;4246580;28;21440;-73
2021/12/25 08:54:18;;;;;;;24.70;6.87;;;;;;;;;;4272571;28;20225;-73
2021/12/25 08:56:45;;;;;;;24.03;6.20;;;;;;;;;;4226460;28;20244;-72
2021/12/25 08:59:11;;;;;;;24.73;7.33;;;;;;;;;;4245918;28;20309;-73
2021/12/25 09:01:38;;;;;;;17.57;6.87;;;;;;;;;;4292263;28;20458;-74
2021/12/25 09:04:05;;;;;;;16.27;6.63;;;;;;;;;;4239423;28;21235;-74
2021/12/25 09:06:38;;;;;;;18.67;5.90;;;;;;;;;;4219816;28;20253;-72
2021/12/25 09:09:07;;;;;;;16.93;6.20;;;;;;;;;;4281982;28;20353;-73
2021/12/25 09:11:35;;;;;;;20.60;6.20;;;;;;;;;;4226496;28;22818;-72
2021/12/25 09:14:01;;;;;;;16.30;5.53;;;;;;;;;;4198436;28;20260;-74
2021/12/25 09:16:28;;;;;;;18.47;6.23;;;;;;;;;;4225969;28;20228;-73
2021/12/25 09:18:55;;;;;;;16.47;6.03;;;;;;;;;;4216745;28;20235;-74
2021/12/25 09:21:21;;;;;;;16.27;6.70;;;;;;;;;;4251587;28;21195;-73
2021/12/25 09:23:48;;;;;;;15.20;6.57;;;;;;;;;;4268079;28;20311;-74
2021/12/25 09:26:17;;;;;;;16.60;6.57;;;;;;;;;;4239443;28;20238;-71
2021/12/25 09:28:44;;;;;;;20.10;6.50;;;;;;;;;;4197710;28;20381;-75
2021/12/25 09:31:11;;;;;;;17.37;5.97;;;;;;;;;;4237858;28;22038;-74
2021/12/25 09:33:38;;;;;;;23.40;7.17;;;;;;;;;;4208807;28;22782;-70
2021/12/25 09:36:10;;;;;;;22.27;7.40;;;;;;;;;;4205189;28;20290;-73
2021/12/25 09:38:37;;;;;;;23.00;8.00;;;;;;;;;;4216976;28;20302;-70
2021/12/25 09:41:04;;;;;;;28.27;7.60;;;;;;;;;;4197192;28;20241;-72
2021/12/25 09:43:33;;;;;;;22.47;8.03;;;;;;;;;;4241478;28;20408;-72
2021/12/25 09:45:59;;;;;;;25.53;7.40;;;;;;;;;;4195678;28;20333;-72
2021/12/25 09:48:26;;;;;;;22.23;6.97;;;;;;;;;;4234313;28;20705;-72
2021/12/25 09:50:54;;;;;;;21.20;7.00;;;;;;;;;;4219651;28;23897;-72
2021/12/25 09:53:21;;;;;;;21.83;6.70;;;;;;;;;;4215582;28;20236;-74
2021/12/25 09:55:47;;;;;;;21.20;6.97;;;;;;;;;;4188769;28;22176;-69
2021/12/25 09:58:14;;;;;;;22.63;8.20;;;;;;;;;;4223419;28;20359;-73
2021/12/25 10:00:42;;;;;;;17.27;6.37;;;;;;;;;;4169289;28;20404;-73
2021/12/25 10:03:22;;;;;;;19.57;7.53;;;;;;;;;;4244341;28;20301;-72
2021/12/25 10:05:49;;;;;;;22.27;7.13;;;;;;;;;;4200404;28;20278;-74
2021/12/25 10:08:17;;;;;;;22.13;6.97;;;;;;;;;;4267212;28;20353;-73
2021/12/25 10:10:46;;;;;;;24.53;8.20;;;;;;;;;;4253457;28;20232;-70
2021/12/25 10:13:32;;;;;;;29.07;8.33;;;;;;;;;;4212914;28;20246;-70
2021/12/25 10:16:01;;;;;;;25.27;9.63;;;;;;;;;;4249639;28;20245;-74
2021/12/25 10:18:29;;;;;;;22.30;8.17;;;;;;;;;;4268298;28;20730;-68
2021/12/25 10:20:56;;;;;;;27.10;8.90;;;;;;;;;;4236043;28;20295;-71
2021/12/25 10:23:27;;;;;;;26.47;8.97;;;;;;;;;;4214554;28;22351;-73
2021/12/25 10:25:59;;;;;;;26.43;8.20;;;;;;;;;;4231384;28;22589;-72
2021/12/25 10:28:27;;;;;;;22.00;8.50;;;;;;;;;;4228101;28;20592;-72
2021/12/25 10:30:59;;;;;;;33.20;10.13;;;;;;;;;;4228872;28;20238;-78
2021/12/25 10:33:36;;;;;;;29.53;9.07;;;;;;;;;;4223889;28;20278;-75
2021/12/25 10:36:07;;;;;;;32.07;9.37;;;;;;;;;;4238650;28;20218;-75
2021/12/25 10:38:34;;;;;;;37.97;9.87;;;;;;;;;;4233158;28;25407;-74
2021/12/25 10:41:13;;;;;;;34.17;10.60;;;;;;;;;;4190690;28;20300;-73
2021/12/25 10:43:41;;;;;;;40.47;10.50;;;;;;;;;;4191284;28;21721;-72
2021/12/25 10:46:08;;;;;;;32.00;9.30;;;;;;;;;;4228724;28;20552;-74
2021/12/25 10:48:34;;;;;;;32.70;9.27;;;;;;;;;;4195551;28;20739;-72
2021/12/25 10:51:02;;;;;;;31.50;9.43;;;;;;;;;;4188657;28;20246;-74
2021/12/25 10:53:28;;;;;;;32.13;8.60;;;;;;;;;;4207982;28;20251;-73
2021/12/25 10:56:09;;;;;;;30.40;8.63;;;;;;;;;;4256974;28;20248;-73
2021/12/25 10:58:36;;;;;;;23.73;8.23;;;;;;;;;;4239427;28;20237;-72
2021/12/25 11:01:05;;;;;;;29.00;8.40;;;;;;;;;;4206787;28;20586;-71
2021/12/25 11:03:34;;;;;;;22.87;8.20;;;;;;;;;;4229161;28;20245;-73
2021/12/25 11:06:30;;;;;;;26.53;8.53;;;;;;;;;;4209265;28;20776;-72
2021/12/25 11:08:58;;;;;;;26.13;8.93;;;;;;;;;;4213066;28;20443;-72
2021/12/25 11:11:25;;;;;;;24.60;8.60;;;;;;;;;;4220728;28;20823;-75
2021/12/25 11:13:53;;;;;;;26.23;9.13;;;;;;;;;;4200842;28;21989;-75
2021/12/25 11:16:27;;;;;;;25.20;9.07;;;;;;;;;;4235251;28;20712;-72
2021/12/25 11:19:05;;;;;;;26.37;9.43;;;;;;;;;;4213292;28;21776;-73
2021/12/25 11:21:36;;;;;;;34.87;9.77;;;;;;;;;;4215360;28;20355;-71
2021/12/25 11:24:10;;;;;;;28.03;10.03;;;;;;;;;;4226814;28;20308;-75
2021/12/25 11:26:37;;;;;;;33.70;11.43;;;;;;;;;;4206864;28;20228;-73
2021/12/25 11:29:05;;;;;;;36.70;10.23;;;;;;;;;;4229037;28;20247;-75
2021/12/25 11:31:33;;;;;;;32.37;9.90;;;;;;;;;;4241676;28;22178;-72
2021/12/25 11:34:00;;;;;;;34.67;9.90;;;;;;;;;;4218970;28;20237;-73
2021/12/25 11:36:27;;;;;;;36.50;9.17;;;;;;;;;;4219285;28;20367;-73
2021/12/25 11:38:53;;;;;;;34.67;9.70;;;;;;;;;;4257169;28;25400;-74
2021/12/25 11:41:24;;;;;;;26.23;8.47;;;;;;;;;;4225081;28;21262;-74
2021/12/25 11:43:51;;;;;;;36.53;9.40;;;;;;;;;;4218018;28;20354;-74
2021/12/25 11:46:18;;;;;;;29.33;9.10;;;;;;;;;;4196075;28;23501;-74
2021/12/25 11:49:02;;;;;;;30.53;9.27;;;;;;;;;;4214379;28;22812;-74
2021/12/25 11:51:30;;;;;;;23.57;7.00;;;;;;;;;;4244080;28;20307;-72
2021/12/25 11:56:48;;;;;;;31.17;8.73;;;;;;;;;;4203991;28;20624;-71
2021/12/25 11:59:17;;;;;;;31.40;8.67;;;;;;;;;;4208355;28;20306;-73
2021/12/25 12:01:43;;;;;;;32.10;9.80;;;;;;;;;;4227600;28;25459;-75
2021/12/25 12:04:10;;;;;;;23.73;7.73;;;;;;;;;;4236283;28;20344;-75
2021/12/25 12:09:19;;;;;;;26.30;7.97;;;;;;;;;;4212433;28;20239;-74
2021/12/25 12:11:49;;;;;;;23.40;6.87;;;;;;;;;;4202215;28;21147;-76
2021/12/25 12:14:23;;;;;;;26.80;7.80;;;;;;;;;;4210447;28;20292;-74
2021/12/25 12:16:55;;;;;;;31.60;8.50;;;;;;;;;;4214811;28;20240;-71
2021/12/25 12:19:35;;;;;;;28.47;7.90;;;;;;;;;;4221322;28;21452;-70
2021/12/25 12:27:40;;;;;;;20.77;7.00;;;;;;;;;;4213387;28;20404;-70
2021/12/25 12:30:09;;;;;;;23.70;7.97;;;;;;;;;;4236915;28;20237;-71
2021/12/25 12:32:37;;;;;;;24.43;8.63;;;;;;;;;;4216223;28;20234;-70
2021/12/25 12:35:23;;;;;;;26.87;8.87;;;;;;;;;;4212774;28;22434;-70
2021/12/25 12:37:50;;;;;;;23.43;8.60;;;;;;;;;;4248111;28;20236;-74
2021/12/25 12:40:16;;;;;;;28.03;9.50;;;;;;;;;;4233926;28;22380;-71
2021/12/25 12:45:15;;;;;;;33.20;10.63;;;;;;;;;;4210279;28;20232;-70
2021/12/25 12:48:02;;;;;;;26.53;9.77;;;;;;;;;;4210695;28;20251;-69
2021/12/25 12:50:32;;;;;;;26.00;8.67;;;;;;;;;;4212583;28;21812;-69
2021/12/25 12:52:59;;;;;;;26.73;9.77;;;;;;;;;;4232575;28;20808;-69
2021/12/25 12:55:27;;;;;;;28.77;9.77;;;;;;;;;;4197195;28;25490;-69
2021/12/25 12:58:11;;;;;;;29.30;9.90;;;;;;;;;;4201289;28;23981;-69
2021/12/25 13:00:39;;;;;;;29.67;9.73;;;;;;;;;;4215439;28;20238;-69
2021/12/25 13:03:07;;;;;;;30.10;10.10;;;;;;;;;;4211023;28;20241;-69
2021/12/25 13:05:38;;;;;;;27.40;9.33;;;;;;;;;;4223991;28;20319;-68
2021/12/25 13:08:12;;;;;;;29.13;9.10;;;;;;;;;;4201833;28;21298;-68
2021/12/25 13:10:50;;;;;;;28.57;8.77;;;;;;;;;;4209217;28;23182;-69
2021/12/25 13:13:24;;;;;;;30.67;9.23;;;;;;;;;;4223911;28;20240;-68
2021/12/25 13:16:01;;;;;;;24.90;8.27;;;;;;;;;;4208289;28;20236;-68
2021/12/25 13:18:29;;;;;;;26.03;9.17;;;;;;;;;;4206527;28;20236;-68
2021/12/25 13:20:56;;;;;;;26.00;8.57;;;;;;;;;;4203790;28;20412;-69
2021/12/25 13:23:24;;;;;;;26.93;9.50;;;;;;;;;;4207700;28;21764;-69
2021/12/25 13:26:02;;;;;;;27.67;8.73;;;;;;;;;;4207754;28;21722;-68
2021/12/25 13:28:30;;;;;;;26.57;9.40;;;;;;;;;;4205520;28;20343;-70
2021/12/25 13:30:59;;;;;;;34.67;9.60;;;;;;;;;;4202173;28;20257;-69
2021/12/25 13:33:26;;;;;;;27.63;8.50;;;;;;;;;;4207834;28;20369;-69
2021/12/25 13:36:19;;;;;;;30.47;9.40;;;;;;;;;;4199513;28;20319;-68
2021/12/25 13:38:50;;;;;;;29.10;8.43;;;;;;;;;;4201847;28;25697;-68
2021/12/25 13:41:26;;;;;;;27.53;8.87;;;;;;;;;;4204914;28;20299;-70
2021/12/25 13:44:12;;;;;;;28.87;9.80;;;;;;;;;;4216394;28;20246;-69
2021/12/25 13:46:50;;;;;;;31.47;9.40;;;;;;;;;;4212616;28;22624;-68
2021/12/25 13:49:26;;;;;;;36.07;9.63;;;;;;;;;;4199718;28;20240;-69
2021/12/25 13:51:53;;;;;;;28.40;9.77;;;;;;;;;;4209182;28;21199;-68
2021/12/25 13:54:20;;;;;;;32.73;10.60;;;;;;;;;;4197718;28;21885;-70
2021/12/25 13:56:56;;;;;;;26.73;8.87;;;;;;;;;;4200958;28;24046;-68
2021/12/25 13:59:28;;;;;;;33.23;9.93;;;;;;;;;;4201852;28;20340;-70
2021/12/25 14:01:55;;;;;;;31.97;8.93;;;;;;;;;;4197644;28;20249;-66
2021/12/25 14:04:22;;;;;;;35.93;9.63;;;;;;;;;;4192523;28;21429;-68
2021/12/25 14:06:49;;;;;;;27.23;8.40;;;;;;;;;;4215820;28;20248;-68
2021/12/25 14:09:15;;;;;;;26.80;9.63;;;;;;;;;;4203379;28;22972;-67
2021/12/25 14:11:56;;;;;;;30.50;9.40;;;;;;;;;;4195742;28;20354;-68
2021/12/25 14:14:24;;;;;;;33.37;9.97;;;;;;;;;;4209865;28;20239;-71
2021/12/25 14:16:51;;;;;;;32.33;9.70;;;;;;;;;;4203701;28;20240;-70
2021/12/25 14:19:18;;;;;;;26.30;9.17;;;;;;;;;;4207152;28;20311;-69
2021/12/25 14:21:52;;;;;;;26.27;9.03;;;;;;;;;;4207616;28;25541;-70
2021/12/25 14:24:19;;;;;;;28.60;10.23;;;;;;;;;;4204192;28;20324;-68
2021/12/25 14:26:46;;;;;;;28.30;9.33;;;;;;;;;;4204856;28;26205;-68
2021/12/25 14:29:22;;;;;;;23.80;8.23;;;;;;;;;;4195558;28;20234;-67
2021/12/25 14:31:49;;;;;;;27.10;9.17;;;;;;;;;;4205760;28;21985;-67
2021/12/25 14:34:15;;;;;;;29.57;9.53;;;;;;;;;;4201187;28;21422;-69
2021/12/25 14:36:43;;;;;;;30.20;9.10;;;;;;;;;;4210816;28;20323;-69
2021/12/25 14:39:14;;;;;;;32.73;9.27;;;;;;;;;;4232468;28;20296;-74
2021/12/25 14:41:42;;;;;;;32.47;10.27;;;;;;;;;;4218533;28;25743;-67
2021/12/25 14:44:18;;;;;;;35.33;10.83;;;;;;;;;;4217653;28;20238;-77
2021/12/25 14:46:45;;;;;;;38.27;10.93;;;;;;;;;;4218314;28;20315;-70
2021/12/25 14:49:12;;;;;;;37.47;11.13;;;;;;;;;;4254007;28;20232;-73
2021/12/25 14:51:41;;;;;;;35.93;11.17;;;;;;;;;;4235230;28;20239;-69
2021/12/25 14:54:08;;;;;;;37.83;11.13;;;;;;;;;;4218457;28;22370;-70
2021/12/25 14:56:36;;;;;;;30.57;10.57;;;;;;;;;;4215795;28;20226;-68
2021/12/25 14:59:08;;;;;;;40.50;11.27;;;;;;;;;;4225087;28;20342;-69
2021/12/25 15:01:36;;;;;;;36.03;10.87;;;;;;;;;;4212578;28;22210;-69
2021/12/25 15:04:06;;;;;;;36.03;10.77;;;;;;;;;;4204660;28;20236;-70
2021/12/25 15:06:33;;;;;;;40.63;12.43;;;;;;;;;;4207628;28;20254;-70
2021/12/25 15:09:02;;;;;;;53.53;14.17;;;;;;;;;;4215975;28;20394;-73
2021/12/25 15:11:33;;;;;;;51.13;13.50;;;;;;;;;;4230257;28;20238;-70
2021/12/25 15:14:02;;;;;;;43.47;14.07;;;;;;;;;;4191417;28;20235;-69
2021/12/25 15:16:36;;;;;;;41.77;12.57;;;;;;;;;;4191479;28;25538;-70
2021/12/25 15:19:02;;;;;;;57.00;14.67;;;;;;;;;;4198850;28;20245;-71
2021/12/25 15:21:29;;;;;;;46.97;13.97;;;;;;;;;;4194977;28;20301;-69
2021/12/25 15:24:09;;;;;;;51.63;15.50;;;;;;;;;;4203954;28;20252;-70
2021/12/25 15:26:40;;;;;;;49.03;13.50;;;;;;;;;;4189945;28;25640;-75
2021/12/25 15:29:07;;;;;;;36.90;11.77;;;;;;;;;;4194235;28;20232;-74
2021/12/25 15:31:34;;;;;;;45.40;12.43;;;;;;;;;;4193604;28;21697;-72
2021/12/25 15:34:05;;;;;;;37.20;12.40;;;;;;;;;;4189566;28;20244;-75
2021/12/25 15:36:34;;;;;;;47.13;13.37;;;;;;;;;;4209000;28;20316;-69
2021/12/25 15:39:08;;;;;;;40.70;14.03;;;;;;;;;;4195502;28;20252;-70
2021/12/25 15:41:36;;;;;;;41.80;12.60;;;;;;;;;;4193289;28;20418;-73
2021/12/25 15:44:03;;;;;;;34.73;12.73;;;;;;;;;;4191587;28;21476;-72
2021/12/25 15:46:30;;;;;;;40.33;13.37;;;;;;;;;;4195381;28;20228;-72
2021/12/25 15:48:56;;;;;;;49.63;13.27;;;;;;;;;;4194404;28;23252;-71
2021/12/25 15:51:23;;;;;;;46.53;14.67;;;;;;;;;;4179779;28;20237;-71
2021/12/25 15:53:51;;;;;;;56.40;15.80;;;;;;;;;;4185261;28;20236;-68
2021/12/25 15:56:18;;;;;;;58.83;15.57;;;;;;;;;;4187085;28;20492;-71
2021/12/25 15:58:44;;;;;;;64.70;16.70;;;;;;;;;;4202689;28;20235;-70
2021/12/25 16:01:11;;;;;;;52.23;15.10;;;;;;;;;;4177702;28;20309;-70
2021/12/25 16:03:37;;;;;;;52.57;15.07;;;;;;;;;;4186799;28;21662;-70
2021/12/25 16:06:04;;;;;;;56.40;15.07;;;;;;;;;;4193187;28;20660;-70
2021/12/25 16:08:30;;;;;;;58.97;16.73;;;;;;;;;;4198423;28;20233;-70